Time;durP1;ratioP1;P1;durP2;ratioP2;P2;SDS_P1;SDS_P2;PMS_P1;PMS_P2;Temp;Humidity;BMP_temperature;BMP_pressure;BME280_temperature;BME280_humidity;BME280_pressure;Samples;Min_cycle;Max_cycle;Signal;HPM_P1;HPM_P2
2023/07/21 00:00:58;;;;;;;9.77;8.93;;;11.50;99.90;;;;;;4974616;28;20054;-82
2023/07/21 00:03:24;;;;;;;11.45;10.35;;;11.40;99.90;;;;;;4956961;28;20069;-82
2023/07/21 00:05:49;;;;;;;11.88;10.77;;;11.40;99.90;;;;;;4966036;28;20043;-82
2023/07/21 00:08:18;;;;;;;11.30;10.40;;;11.40;99.90;;;;;;4974001;28;20485;-82
2023/07/21 00:10:44;;;;;;;10.82;9.88;;;11.40;99.90;;;;;;4974045;28;20243;-82
2023/07/21 00:13:09;;;;;;;10.05;9.25;;;11.40;99.90;;;;;;4951792;29;20159;-82
2023/07/21 00:15:35;;;;;;;13.80;12.45;;;11.40;99.90;;;;;;4971711;28;20034;-81
2023/07/21 00:18:02;;;;;;;14.73;13.20;;;11.40;99.90;;;;;;4957499;28;20454;-83
2023/07/21 00:20:29;;;;;;;17.77;14.57;;;11.40;99.90;;;;;;4957499;28;20490;-82
2023/07/21 00:22:54;;;;;;;14.00;12.70;;;11.40;99.90;;;;;;4973447;28;20049;-81
2023/07/21 00:25:21;;;;;;;13.95;12.52;;;11.40;99.90;;;;;;4957660;28;20042;-81
2023/07/21 00:27:46;;;;;;;13.73;12.50;;;11.50;99.90;;;;;;4954349;28;20499;-82
2023/07/21 00:30:13;;;;;;;14.75;13.50;;;11.50;99.90;;;;;;4952610;28;20035;-82
2023/07/21 00:32:40;;;;;;;12.63;11.43;;;11.50;99.90;;;;;;4973176;28;20050;-82
2023/07/21 00:35:08;;;;;;;13.32;12.18;;;11.50;99.90;;;;;;4957710;28;20085;-81
2023/07/21 00:37:34;;;;;;;13.38;12.10;;;11.50;99.90;;;;;;4957678;28;20133;-81
2023/07/21 00:40:03;;;;;;;14.00;12.70;;;11.50;99.90;;;;;;4957562;28;20138;-82
2023/07/21 00:42:29;;;;;;;16.23;14.55;;;11.50;99.90;;;;;;4954086;28;20090;-82
2023/07/21 00:44:56;;;;;;;17.45;15.85;;;11.50;99.90;;;;;;4957774;28;20050;-82
2023/07/21 00:47:29;;;;;;;14.35;13.15;;;11.50;99.90;;;;;;5042453;23;20418;-77
2023/07/21 00:50:09;;;;;;;13.90;12.60;;;11.60;99.90;;;;;;4988644;28;20030;-77
2023/07/21 00:53:07;;;;;;;15.77;14.13;;;11.60;99.90;;;;;;4997903;28;20136;-76
2023/07/21 00:55:38;;;;;;;22.52;19.50;;;11.60;99.90;;;;;;4985470;28;20068;-76
2023/07/21 00:58:13;;;;;;;22.87;20.50;;;11.60;99.90;;;;;;4994124;28;20406;-78
2023/07/21 01:00:42;;;;;;;14.23;12.82;;;11.70;99.90;;;;;;4985034;28;20105;-78
2023/07/21 01:03:15;;;;;;;15.68;14.38;;;11.60;99.90;;;;;;4985147;28;20169;-79
2023/07/21 01:05:48;;;;;;;16.40;14.88;;;11.60;99.90;;;;;;5001603;28;20114;-79
2023/07/21 01:08:20;;;;;;;16.23;14.63;;;11.60;99.90;;;;;;4987653;28;20034;-79
2023/07/21 01:10:59;;;;;;;17.00;15.30;;;11.60;99.90;;;;;;4987950;28;20050;-79
2023/07/21 01:13:27;;;;;;;15.50;14.10;;;11.70;99.90;;;;;;4979165;28;20086;-79
2023/07/21 01:16:00;;;;;;;17.15;15.55;;;11.60;99.90;;;;;;4978396;28;20059;-78
2023/07/21 01:18:30;;;;;;;16.08;14.73;;;11.70;99.90;;;;;;4985646;28;20039;-78
2023/07/21 01:20:57;;;;;;;17.65;15.95;;;11.70;99.90;;;;;;4986044;28;20045;-78
2023/07/21 01:23:34;;;;;;;15.48;14.07;;;11.80;99.90;;;;;;4964593;28;20062;-78
2023/07/21 01:26:12;;;;;;;19.23;17.23;;;11.70;99.90;;;;;;4978961;28;20081;-78
2023/07/21 01:28:46;;;;;;;14.20;13.00;;;11.70;99.90;;;;;;4970054;28;20050;-78
2023/07/21 01:31:28;;;;;;;14.43;13.23;;;11.70;99.90;;;;;;5004356;28;20049;-79
2023/07/21 01:34:01;;;;;;;17.75;15.95;;;11.80;99.90;;;;;;5001193;28;20652;-77
2023/07/21 01:36:37;;;;;;;15.13;13.93;;;11.80;99.90;;;;;;4986906;28;20107;-78
2023/07/21 01:39:07;;;;;;;14.75;13.45;;;11.80;99.90;;;;;;4986025;28;20482;-79
2023/07/21 01:41:35;;;;;;;16.60;15.00;;;11.80;99.90;;;;;;4984867;28;20070;-78
2023/07/21 01:44:05;;;;;;;17.63;15.95;;;11.80;99.90;;;;;;4982180;28;20048;-78
2023/07/21 01:46:32;;;;;;;17.55;16.08;;;11.80;99.90;;;;;;4983783;28;20106;-78
2023/07/21 01:49:31;;;;;;;19.98;17.85;;;11.80;99.90;;;;;;5003450;28;20081;-78
2023/07/21 01:51:58;;;;;;;15.40;14.10;;;11.80;99.90;;;;;;4986646;28;20042;-78
2023/07/21 01:54:40;;;;;;;15.90;14.52;;;11.80;99.90;;;;;;4978633;28;20039;-79
2023/07/21 01:57:10;;;;;;;14.63;13.23;;;11.80;99.90;;;;;;4988086;28;20050;-78
2023/07/21 01:59:39;;;;;;;17.45;15.82;;;11.80;99.90;;;;;;4987206;28;20064;-79
2023/07/21 02:02:05;;;;;;;15.80;14.35;;;11.90;99.90;;;;;;4986024;28;20043;-79
2023/07/21 02:04:33;;;;;;;17.25;15.60;;;11.90;99.90;;;;;;4987211;28;20042;-79
2023/07/21 02:07:02;;;;;;;16.48;14.98;;;11.90;99.90;;;;;;4986633;28;20038;-78
2023/07/21 02:09:29;;;;;;;15.50;13.98;;;11.90;99.90;;;;;;4981110;28;20046;-79
2023/07/21 02:11:56;;;;;;;17.77;15.88;;;11.90;99.90;;;;;;4991391;28;20045;-78
2023/07/21 02:14:49;;;;;;;16.73;15.10;;;11.90;99.90;;;;;;4992098;28;20039;-79
2023/07/21 02:17:28;;;;;;;16.20;14.63;;;11.90;99.90;;;;;;5008207;28;20046;-80
2023/07/21 02:19:59;;;;;;;16.25;14.85;;;11.90;99.90;;;;;;4988894;28;20039;-79
2023/07/21 02:22:46;;;;;;;16.08;14.57;;;11.90;99.90;;;;;;4995071;28;20042;-78
2023/07/21 02:25:20;;;;;;;15.98;14.45;;;11.90;99.90;;;;;;4990431;28;20061;-79
2023/07/21 02:28:24;;;;;;;22.10;19.88;;;12.00;99.90;;;;;;4994345;28;20113;-79
2023/07/21 02:31:13;;;;;;;18.15;16.40;;;11.90;99.90;;;;;;5006771;28;20141;-79
2023/07/21 02:34:07;;;;;;;17.15;15.55;;;11.90;99.90;;;;;;5007467;28;20109;-78
2023/07/21 02:36:43;;;;;;;18.05;16.45;;;11.90;99.90;;;;;;5007126;28;20050;-78
2023/07/21 02:39:17;;;;;;;15.20;13.93;;;11.90;99.90;;;;;;4970311;28;20050;-79
2023/07/21 02:41:48;;;;;;;15.73;14.27;;;11.90;99.90;;;;;;4980861;28;20070;-78
2023/07/21 02:44:37;;;;;;;15.55;14.05;;;11.90;99.90;;;;;;4983390;28;20050;-79
2023/07/21 02:47:54;;;;;;;17.88;16.27;;;11.90;99.90;;;;;;5003915;28;20048;-79
2023/07/21 02:51:17;;;;;;;15.93;14.63;;;11.80;99.90;;;;;;4970373;28;20051;-80
2023/07/21 02:53:52;;;;;;;16.33;14.88;;;11.90;99.90;;;;;;4958912;28;20058;-78
2023/07/21 02:56:48;;;;;;;16.58;15.18;;;11.80;99.90;;;;;;4986403;28;20050;-79
2023/07/21 02:59:20;;;;;;;17.33;15.93;;;11.80;99.90;;;;;;4977571;28;20038;-78
2023/07/21 03:02:06;;;;;;;17.95;16.13;;;11.80;99.90;;;;;;4981450;28;20046;-78
2023/07/21 03:04:52;;;;;;;18.33;16.60;;;11.80;99.90;;;;;;4999401;28;20034;-78
2023/07/21 03:07:32;;;;;;;17.67;15.98;;;11.80;99.90;;;;;;4975561;28;20082;-79
2023/07/21 03:10:16;;;;;;;19.90;18.20;;;11.80;99.90;;;;;;4978860;28;20046;-78
2023/07/21 03:13:04;;;;;;;14.60;13.30;;;11.80;99.90;;;;;;4992914;28;20568;-79
2023/07/21 03:15:36;;;;;;;17.80;16.13;;;11.70;99.90;;;;;;4988234;28;20046;-78
2023/07/21 03:18:08;;;;;;;16.65;15.20;;;11.70;99.90;;;;;;4982457;28;20089;-78
2023/07/21 03:20:41;;;;;;;17.25;15.85;;;11.80;99.90;;;;;;4965974;28;20046;-79
2023/07/21 03:23:24;;;;;;;17.58;16.02;;;11.60;99.90;;;;;;4993877;28;20150;-78
2023/07/21 03:26:38;;;;;;;16.92;15.43;;;11.60;99.90;;;;;;4964455;28;20058;-78
2023/07/21 03:29:11;;;;;;;17.55;16.05;;;11.60;99.90;;;;;;4994636;28;20094;-78
2023/07/21 03:32:17;;;;;;;15.73;14.53;;;11.60;99.90;;;;;;4985736;28;20042;-78
2023/07/21 03:34:56;;;;;;;19.08;17.27;;;11.50;99.90;;;;;;5000308;28;20281;-79
2023/07/21 03:37:46;;;;;;;15.68;14.38;;;11.50;99.90;;;;;;5003002;28;20074;-79
2023/07/21 03:40:18;;;;;;;16.15;14.63;;;11.50;99.90;;;;;;4967832;28;20066;-78
2023/07/21 03:43:08;;;;;;;19.38;17.52;;;11.50;99.90;;;;;;4980924;28;20185;-79
2023/07/21 03:45:49;;;;;;;17.35;15.82;;;11.40;99.90;;;;;;4987699;28;20061;-78
2023/07/21 03:48:21;;;;;;;28.10;23.27;;;11.40;99.90;;;;;;5005170;28;20054;-79
2023/07/21 03:50:59;;;;;;;15.07;13.88;;;11.40;99.90;;;;;;4972514;28;20054;-78
2023/07/21 03:53:37;;;;;;;19.50;17.60;;;11.40;99.90;;;;;;4995034;28;20118;-78
2023/07/21 03:56:07;;;;;;;19.77;17.98;;;11.40;99.90;;;;;;4980574;28;20035;-78
2023/07/21 03:58:38;;;;;;;17.33;15.82;;;11.30;99.90;;;;;;4986418;28;20056;-78
2023/07/21 04:01:11;;;;;;;18.55;16.90;;;11.30;99.90;;;;;;4986843;28;20066;-78
2023/07/21 04:03:40;;;;;;;21.85;19.80;;;11.30;99.90;;;;;;4986568;28;20046;-78
2023/07/21 04:06:17;;;;;;;19.17;17.58;;;11.30;99.90;;;;;;4968593;28;20035;-79
2023/07/21 04:09:05;;;;;;;22.30;20.25;;;11.30;99.90;;;;;;4979475;28;20512;-78
2023/07/21 04:11:35;;;;;;;18.98;17.35;;;11.30;99.90;;;;;;4984941;28;20054;-78
2023/07/21 04:14:06;;;;;;;22.65;20.50;;;11.40;99.90;;;;;;4970426;28;20224;-78
2023/07/21 04:16:36;;;;;;;18.95;17.27;;;11.40;99.90;;;;;;5003226;28;20066;-78
2023/07/21 04:19:03;;;;;;;21.70;19.80;;;11.40;99.90;;;;;;4986772;28;20041;-79
2023/07/21 04:21:30;;;;;;;23.27;21.08;;;11.40;99.90;;;;;;4983194;28;20072;-78
2023/07/21 04:24:05;;;;;;;21.60;19.80;;;11.50;99.90;;;;;;4986551;28;20050;-79
2023/07/21 04:26:32;;;;;;;21.60;19.50;;;11.50;99.90;;;;;;4987155;28;20053;-78
2023/07/21 04:29:02;;;;;;;20.90;18.90;;;11.60;99.90;;;;;;5004203;28;20046;-79
2023/07/21 04:31:37;;;;;;;21.00;19.20;;;11.60;99.90;;;;;;4980842;28;20128;-80
2023/07/21 04:34:03;;;;;;;20.15;18.25;;;11.70;99.90;;;;;;4980559;28;20070;-78
2023/07/21 04:36:29;;;;;;;19.20;17.42;;;11.60;99.90;;;;;;4988006;28;20045;-78
2023/07/21 04:38:58;;;;;;;19.70;17.88;;;11.80;99.90;;;;;;4987524;28;20102;-78
2023/07/21 04:41:27;;;;;;;23.58;21.23;;;11.70;99.90;;;;;;4985607;28;20074;-78
2023/07/21 04:43:59;;;;;;;19.92;18.08;;;11.90;99.90;;;;;;4987308;28;20102;-78
2023/07/21 04:46:28;;;;;;;18.23;16.58;;;11.90;99.90;;;;;;4987690;28;20046;-79
2023/07/21 04:48:58;;;;;;;19.67;17.98;;;12.10;99.90;;;;;;4985970;28;20053;-78
2023/07/21 04:51:27;;;;;;;15.77;14.15;;;12.30;99.90;;;;;;4988140;28;20144;-78
2023/07/21 04:54:03;;;;;;;16.60;15.15;;;12.60;99.90;;;;;;4998515;28;20110;-78
2023/07/21 04:56:29;;;;;;;15.07;13.77;;;12.90;99.90;;;;;;4988203;28;20053;-79
2023/07/21 04:58:55;;;;;;;13.82;12.43;;;13.20;99.90;;;;;;4985931;28;20073;-79
2023/07/21 05:01:21;;;;;;;12.00;10.80;;;13.50;99.90;;;;;;4986486;28;20046;-79
2023/07/21 05:03:49;;;;;;;13.15;11.95;;;14.00;99.90;;;;;;4983112;28;20109;-78
2023/07/21 05:06:15;;;;;;;11.52;10.40;;;14.40;99.90;;;;;;4982790;28;20057;-78
2023/07/21 05:08:44;;;;;;;11.10;10.10;;;14.80;99.90;;;;;;4985130;28;20143;-78
2023/07/21 05:11:12;;;;;;;11.55;10.48;;;14.90;99.90;;;;;;4987798;28;20053;-78
2023/07/21 05:13:40;;;;;;;11.32;10.32;;;14.90;99.90;;;;;;4986616;28;20045;-79
2023/07/21 05:16:09;;;;;;;11.98;10.95;;;14.80;99.90;;;;;;4984744;28;20101;-78
2023/07/21 05:18:41;;;;;;;11.65;10.60;;;14.90;99.90;;;;;;4986078;28;20050;-78
2023/07/21 05:21:24;;;;;;;10.85;9.95;;;15.20;99.90;;;;;;4987502;28;20034;-78
2023/07/21 05:23:58;;;;;;;10.50;9.60;;;15.90;99.90;;;;;;4987151;28;20429;-78
2023/07/21 05:26:36;;;;;;;9.73;8.93;;;16.40;99.90;;;;;;5000648;28;20383;-79
2023/07/21 05:29:08;;;;;;;9.82;8.82;;;16.40;99.90;;;;;;4978734;28;20066;-79
2023/07/21 05:31:38;;;;;;;10.25;9.35;;;16.40;99.90;;;;;;4985360;28;20038;-78
2023/07/21 05:34:07;;;;;;;9.63;8.73;;;16.70;99.90;;;;;;4986153;28;20038;-79
2023/07/21 05:36:36;;;;;;;9.50;8.57;;;16.80;99.90;;;;;;5000266;28;20144;-78
2023/07/21 05:39:05;;;;;;;9.32;8.43;;;17.10;99.90;;;;;;4979528;28;20057;-78
2023/07/21 05:41:34;;;;;;;9.77;8.82;;;17.20;99.90;;;;;;4984914;28;20067;-78
2023/07/21 05:44:12;;;;;;;8.88;8.07;;;17.30;99.90;;;;;;4984310;28;20041;-80
2023/07/21 05:46:40;;;;;;;9.00;8.30;;;17.50;99.90;;;;;;4979163;28;20053;-79
2023/07/21 05:49:29;;;;;;;8.80;7.90;;;17.70;99.90;;;;;;4948576;28;20051;-80
2023/07/21 05:52:01;;;;;;;9.38;8.40;;;17.80;99.90;;;;;;4963325;28;20407;-80
2023/07/21 05:54:53;;;;;;;7.93;7.13;;;17.90;99.90;;;;;;4979578;28;20073;-79
2023/07/21 06:00:14;;;;;;;8.32;7.63;;;17.40;99.90;;;;;;4966316;28;20047;-78
2023/07/21 06:02:54;;;;;;;8.43;7.70;;;17.10;99.90;;;;;;4971803;28;20043;-77
2023/07/21 06:05:49;;;;;;;;;;;;;;;;;;;;;
2023/07/21 06:08:40;;;;;;;;;;;;;;;;;;;;;
2023/07/21 06:11:20;;;;;;;;;;;16.60;99.90;;;;;;4988486;28;20545;-77
2023/07/21 06:13:49;;;;;;;10.15;9.15;;;16.40;99.90;;;;;;4969060;28;20399;-77
2023/07/21 06:19:57;;;;;;;9.27;8.48;;;16.00;99.90;;;;;;4969812;28;20081;-78
2023/07/21 06:22:29;;;;;;;9.50;8.70;;;15.90;99.90;;;;;;4954733;28;20057;-79
2023/07/21 06:25:10;;;;;;;10.32;9.10;;;15.80;99.90;;;;;;4952221;28;20057;-78
2023/07/21 06:27:57;;;;;;;9.10;8.30;;;15.80;99.90;;;;;;4956323;28;20051;-78
2023/07/21 06:30:50;;;;;;;11.20;10.10;;;15.70;99.90;;;;;;4974316;28;20425;-78
2023/07/21 06:33:35;;;;;;;9.70;8.85;;;15.70;99.90;;;;;;4983828;28;20066;-79
2023/07/21 06:36:18;;;;;;;10.65;9.35;;;15.70;99.90;;;;;;4956846;28;20039;-78
2023/07/21 06:39:06;;;;;;;10.63;9.63;;;15.80;99.90;;;;;;4955609;28;20035;-78
2023/07/21 06:41:56;;;;;;;;;;;15.80;99.90;;;;;;4955792;28;20078;-79
2023/07/21 06:44:35;;;;;;;9.60;8.23;;;15.80;99.90;;;;;;4972081;28;19918;-78
2023/07/21 06:47:10;;;;;;;10.13;9.10;;;15.90;99.90;;;;;;4959308;28;20502;-78
2023/07/21 06:50:02;;;;;;;10.70;8.80;;;15.90;99.90;;;;;;4974108;28;20571;-78
2023/07/21 06:52:32;;;;;;;8.82;7.97;;;15.90;99.90;;;;;;4987111;28;20054;-78
2023/07/21 06:55:38;;;;;;;11.00;7.30;;;16.00;99.90;;;;;;4975138;28;20081;-78
2023/07/21 06:58:10;;;;;;;8.57;7.45;;;16.10;99.90;;;;;;4976019;28;20034;-77
2023/07/21 07:01:15;;;;;;;8.40;7.47;;;16.00;99.90;;;;;;4987677;28;20124;-78
2023/07/21 07:04:38;;;;;;;7.45;5.88;;;16.00;99.90;;;;;;4977978;28;20043;-79
2023/07/21 07:12:11;;;;;;;;;;;;;;;;;;;;;
2023/07/21 07:15:32;;;;;;;7.13;5.80;;;16.20;99.90;;;;;;4924633;29;20086;-77
2023/07/21 07:18:33;;;;;;;8.48;5.82;;;16.20;99.90;;;;;;4931730;29;20051;-77
2023/07/21 07:21:42;;;;;;;6.43;5.80;;;16.30;99.90;;;;;;4936932;28;20603;-77
2023/07/21 07:24:33;;;;;;;;;;;16.40;99.90;;;;;;4918328;29;20067;-78
2023/07/21 07:35:06;;;;;;;5.57;4.22;;;16.90;99.90;;;;;;4977139;28;20061;-78
2023/07/21 07:39:10;;;;;;;;;;;;;;;;;;;;;
2023/07/21 07:46:31;;;;;;;;;;;;;;;;;;;;;
2023/07/21 07:50:27;;;;;;;;;;;;;;;;;;;;;
2023/07/21 08:09:39;;;;;;;13.00;4.22;;;20.20;99.90;;;;;;4851333;29;20049;-78
2023/07/21 08:13:12;;;;;;;;;;;;;;;;;;;;;
2023/07/21 08:20:33;;;;;;;2.78;2.40;;;22.60;99.90;;;;;;4811360;29;20059;-78
2023/07/21 08:27:09;;;;;;;2.30;2.10;;;22.00;99.90;;;;;;4992083;23;20510;-77
2023/07/21 08:30:14;;;;;;;;;;;;;;;;;;;;;
2023/07/21 08:47:49;;;;;;;3.63;1.77;;;24.10;99.90;;;;;;5036927;23;20050;-76
2023/07/21 08:51:01;;;;;;;2.72;2.13;;;24.40;99.90;;;;;;4955897;28;20054;-77
2023/07/21 08:53:54;;;;;;;2.47;1.98;;;24.20;99.90;;;;;;4972334;28;20043;-77
2023/07/21 08:57:37;;;;;;;2.35;2.08;;;23.80;99.90;;;;;;4964831;28;20066;-77
2023/07/21 09:07:23;;;;;;;;;;;;;;;;;;;;;
2023/07/21 09:13:58;;;;;;;2.72;1.80;;;25.10;99.90;;;;;;4960244;28;20518;-77
2023/07/21 09:16:49;;;;;;;8.55;2.03;;;24.80;99.90;;;;;;4963218;28;20062;-77
2023/07/21 09:20:03;;;;;;;3.08;1.90;;;24.40;99.90;;;;;;4933530;29;20819;-77
2023/07/21 09:27:00;;;;;;;3.17;1.92;;;23.90;99.90;;;;;;4972569;23;20470;-77
2023/07/21 09:30:04;;;;;;;3.28;2.03;;;24.00;99.90;;;;;;4967219;28;20058;-77
2023/07/21 09:33:40;;;;;;;3.50;1.83;;;24.30;99.90;;;;;;4988488;28;20046;-77
2023/07/21 09:36:47;;;;;;;3.05;1.60;;;24.70;99.90;;;;;;4988514;28;20050;-77
2023/07/21 09:39:29;;;;;;;3.13;1.63;;;25.00;99.90;;;;;;4974130;28;20136;-77
2023/07/21 09:42:50;;;;;;;1.63;1.42;;;25.20;99.80;;;;;;4971216;28;20043;-77
2023/07/21 09:45:39;;;;;;;2.75;1.90;;;25.70;96.20;;;;;;4891052;29;20079;-78
2023/07/21 09:49:39;;;;;;;2.13;1.83;;;26.50;71.20;;;;;;4990366;28;20085;-78
2023/07/21 09:52:37;;;;;;;2.83;1.40;;;27.10;71.10;;;;;;4964434;28;20518;-77
2023/07/21 10:03:26;;;;;;;;;;;;;;;;;;;;;
2023/07/21 10:06:46;;;;;;;;;;;;;;;;;;;;;
2023/07/21 10:14:07;;;;;;;2.28;1.40;;;27.30;64.70;;;;;;4984610;28;20050;-78
2023/07/21 10:19:59;;;;;;;;;;;;;;;;;;;;;
2023/07/21 10:27:13;;;;;;;;;;;;;;;;;;;;;
2023/07/21 10:30:24;;;;;;;3.25;1.75;;;27.00;64.50;;;;;;4921240;29;20048;-78
2023/07/21 10:33:39;;;;;;;2.72;1.90;;;26.60;66.90;;;;;;4906881;29;20468;-79
2023/07/21 10:36:51;;;;;;;3.85;2.05;;;26.70;69.60;;;;;;4955494;23;20050;-78
2023/07/21 10:39:51;;;;;;;4.68;3.03;;;26.90;76.10;;;;;;4944177;28;20390;-78
2023/07/21 10:42:47;;;;;;;3.50;3.20;;;27.00;77.50;;;;;;4974715;28;20051;-79
2023/07/21 10:45:51;;;;;;;3.70;2.33;;;26.70;79.30;;;;;;4963322;28;20073;-78
2023/07/21 10:48:39;;;;;;;2.17;1.40;;;26.60;72.40;;;;;;4956399;28;20046;-78
2023/07/21 10:51:32;;;;;;;5.05;2.08;;;26.40;64.70;;;;;;4957305;28;20125;-78
2023/07/21 10:54:20;;;;;;;;;;;;;;;;;;;;;
2023/07/21 10:56:52;;;;;;;2.55;1.60;;;26.10;65.30;;;;;;4974534;28;20043;-79
2023/07/21 10:59:43;;;;;;;0.80;0.77;;;25.90;69.40;;;;;;4975548;28;20039;-78
2023/07/21 11:07:03;;;;;;;;;;;;;;;;;;;;;
2023/07/21 11:10:27;;;;;;;2.40;1.25;;;25.90;72.70;;;;;;4931410;28;20058;-78
2023/07/21 11:13:08;;;;;;;1.70;1.50;;;25.60;71.60;;;;;;4936445;29;20063;-77
2023/07/21 11:16:20;;;;;;;2.03;1.30;;;25.50;78.30;;;;;;4969838;28;20039;-78
2023/07/21 11:19:07;;;;;;;1.30;1.00;;;25.50;82.10;;;;;;4930068;28;20150;-78
2023/07/21 11:22:02;;;;;;;5.78;1.52;;;25.50;75.80;;;;;;4940829;28;20047;-78
2023/07/21 11:24:35;;;;;;;2.15;1.50;;;25.50;70.60;;;;;;4956200;28;20055;-78
2023/07/21 11:27:40;;;;;;;1.73;1.38;;;25.60;70.40;;;;;;4957902;28;20043;-78
2023/07/21 11:34:28;;;;;;;;;;;;;;;;;;;;;
2023/07/21 11:40:33;;;;;;;2.70;1.50;;;28.20;64.70;;;;;;4986644;28;20050;-78
2023/07/21 11:43:51;;;;;;;1.70;1.52;;;28.50;65.10;;;;;;4961040;28;20236;-78
2023/07/21 11:47:25;;;;;;;1.45;1.30;;;28.80;62.10;;;;;;4945386;29;20061;-78
2023/07/21 11:51:28;;;;;;;;;;;;;;;;;;;;;
2023/07/21 11:54:28;;;;;;;1.58;1.45;;;28.90;55.50;;;;;;4900600;29;20047;-79
2023/07/21 11:57:17;;;;;;;2.50;1.40;;;28.90;59.40;;;;;;4935433;29;20062;-78
2023/07/21 11:59:59;;;;;;;1.40;1.30;;;29.10;61.10;;;;;;4948718;28;20051;-77
2023/07/21 12:03:04;;;;;;;1.50;1.40;;;29.40;60.00;;;;;;4952508;29;20051;-77
2023/07/21 12:06:07;;;;;;;3.42;1.55;;;29.60;60.60;;;;;;4937650;29;20125;-77
2023/07/21 12:09:06;;;;;;;1.98;1.52;;;29.80;60.90;;;;;;4953787;28;20114;-77
2023/07/21 12:12:18;;;;;;;3.17;1.60;;;29.50;54.10;;;;;;4951728;28;20051;-78
2023/07/21 12:15:16;;;;;;;5.13;1.70;;;28.30;58.00;;;;;;4951813;28;20404;-78
2023/07/21 12:18:03;;;;;;;;;;;;;;;;;;;;;
2023/07/21 12:21:24;;;;;;;2.10;1.90;;;26.90;62.40;;;;;;4953280;28;20070;-78
2023/07/21 12:24:37;;;;;;;2.15;1.45;;;26.70;60.00;;;;;;4953427;28;20059;-79
2023/07/21 12:27:15;;;;;;;1.92;1.83;;;26.10;62.30;;;;;;4936413;29;20058;-78
2023/07/21 12:30:01;;;;;;;2.05;1.58;;;25.70;66.50;;;;;;4942519;28;20106;-78
2023/07/21 12:32:44;;;;;;;2.85;1.73;;;25.70;67.30;;;;;;4951936;28;20467;-79
2023/07/21 12:35:20;;;;;;;2.10;1.52;;;25.50;66.50;;;;;;4941898;29;20040;-78
2023/07/21 12:38:05;;;;;;;1.92;1.73;;;25.30;70.30;;;;;;4944734;28;20035;-78
2023/07/21 12:40:39;;;;;;;2.45;2.22;;;25.00;69.60;;;;;;4952091;29;20146;-78
2023/07/21 12:43:20;;;;;;;2.22;2.03;;;24.70;72.20;;;;;;4951582;28;20420;-78
2023/07/21 12:45:57;;;;;;;2.97;1.75;;;24.50;84.10;;;;;;4954023;28;20129;-78
2023/07/21 12:48:37;;;;;;;4.60;1.95;;;24.30;90.10;;;;;;4951105;28;20129;-78
2023/07/21 12:51:06;;;;;;;2.50;1.70;;;24.20;84.50;;;;;;4968232;28;20050;-78
2023/07/21 12:53:32;;;;;;;3.72;2.22;;;24.10;88.30;;;;;;4949505;28;20385;-77
2023/07/21 12:56:19;;;;;;;4.15;2.00;;;23.90;91.20;;;;;;4941986;28;20050;-78
2023/07/21 12:58:55;;;;;;;3.03;2.05;;;23.70;91.70;;;;;;4947142;29;20052;-79
2023/07/21 13:01:36;;;;;;;2.95;1.38;;;23.30;94.70;;;;;;4955156;29;20054;-79
2023/07/21 13:04:18;;;;;;;5.13;1.95;;;22.90;83.80;;;;;;4956286;29;20411;-80
2023/07/21 13:07:12;;;;;;;3.75;1.80;;;22.30;82.30;;;;;;4935634;29;20058;-80
2023/07/21 13:10:18;;;;;;;2.22;1.63;;;21.90;93.40;;;;;;4966579;28;20047;-80
2023/07/21 13:16:56;;;;;;;6.38;2.25;;;20.80;99.90;;;;;;4962594;28;20046;-79
2023/07/21 13:19:57;;;;;;;7.70;3.80;;;20.30;99.90;;;;;;4939488;29;20050;-80
2023/07/21 13:22:28;;;;;;;4.25;3.85;;;19.90;99.90;;;;;;4969631;28;20043;-79
2023/07/21 13:24:56;;;;;;;3.63;2.33;;;19.40;99.90;;;;;;4969131;28;20464;-80
2023/07/21 13:27:25;;;;;;;3.40;2.65;;;19.00;99.90;;;;;;4953727;28;20039;-79
2023/07/21 13:29:56;;;;;;;6.20;2.95;;;18.80;99.90;;;;;;4954462;29;20130;-79
2023/07/21 13:32:34;;;;;;;2.65;2.30;;;18.50;99.90;;;;;;4971486;28;20051;-79
2023/07/21 13:35:28;;;;;;;3.88;3.58;;;18.40;99.90;;;;;;4970297;28;20059;-79
2023/07/21 13:38:08;;;;;;;3.88;3.40;;;18.20;99.90;;;;;;4954905;29;20070;-79
2023/07/21 13:40:40;;;;;;;3.90;3.60;;;18.00;99.90;;;;;;4970374;28;20051;-79
2023/07/21 13:43:07;;;;;;;4.40;4.00;;;17.90;99.90;;;;;;4954072;28;20571;-79
2023/07/21 13:45:44;;;;;;;3.63;3.33;;;17.90;99.90;;;;;;4954961;29;20051;-79
2023/07/21 13:48:21;;;;;;;4.88;4.30;;;17.90;99.90;;;;;;4955584;28;20039;-79
2023/07/21 13:50:56;;;;;;;6.63;5.45;;;17.90;99.90;;;;;;4938232;29;20043;-79
2023/07/21 13:53:27;;;;;;;6.85;4.90;;;17.80;99.90;;;;;;4970044;28;20046;-79
2023/07/21 13:55:54;;;;;;;6.22;5.70;;;17.80;99.90;;;;;;4935746;29;20052;-79
2023/07/21 13:58:25;;;;;;;6.20;5.60;;;17.90;99.90;;;;;;4935847;29;20048;-79
2023/07/21 14:00:54;;;;;;;6.65;6.15;;;18.00;99.90;;;;;;4936466;29;20036;-81
2023/07/21 14:03:31;;;;;;;6.93;6.43;;;18.20;99.90;;;;;;4937795;28;20052;-81
2023/07/21 14:06:06;;;;;;;6.30;5.80;;;18.30;99.90;;;;;;4956815;28;20533;-82
2023/07/21 14:09:00;;;;;;;8.27;7.60;;;18.40;99.90;;;;;;4970178;28;20043;-81
2023/07/21 14:11:34;;;;;;;7.65;6.95;;;18.50;99.90;;;;;;4974656;28;20101;-81
2023/07/21 14:14:09;;;;;;;7.97;7.38;;;18.50;99.90;;;;;;4943193;29;20406;-81
2023/07/21 14:16:45;;;;;;;7.70;7.10;;;18.60;99.90;;;;;;4958358;28;20408;-81
2023/07/21 14:19:35;;;;;;;7.88;7.28;;;18.70;99.90;;;;;;4968693;28;20170;-81
2023/07/21 14:22:15;;;;;;;7.45;6.85;;;18.70;99.90;;;;;;4938354;29;20047;-81
2023/07/21 14:27:55;;;;;;;5.80;5.30;;;18.90;99.90;;;;;;4953367;28;20103;-81
2023/07/21 14:30:26;;;;;;;6.20;5.70;;;18.90;99.90;;;;;;4958642;28;20610;-81
2023/07/21 14:33:18;;;;;;;6.75;6.15;;;19.00;99.90;;;;;;4953793;29;20039;-81
2023/07/21 14:35:58;;;;;;;6.13;5.45;;;19.10;99.90;;;;;;4944571;29;20126;-82
2023/07/21 14:38:40;;;;;;;6.57;6.00;;;19.30;99.90;;;;;;4942737;29;20063;-82
2023/07/21 14:41:32;;;;;;;6.68;6.10;;;19.20;99.90;;;;;;4942442;29;20063;-82
2023/07/21 14:44:08;;;;;;;13.57;7.00;;;19.20;99.90;;;;;;4959994;28;20050;-82
2023/07/21 14:46:37;;;;;;;13.23;9.05;;;19.00;99.90;;;;;;4960527;29;20043;-81
2023/07/21 14:49:05;;;;;;;15.63;9.85;;;18.60;99.90;;;;;;4960072;29;20074;-81
2023/07/21 14:51:34;;;;;;;9.13;8.18;;;18.00;99.90;;;;;;4976735;28;20062;-81
2023/07/21 14:54:06;;;;;;;12.82;9.38;;;17.50;99.90;;;;;;4943219;29;20039;-81
2023/07/21 14:56:37;;;;;;;11.63;10.27;;;17.10;99.90;;;;;;4950486;29;20438;-81
2023/07/21 14:59:11;;;;;;;12.75;11.00;;;16.70;99.90;;;;;;4944953;29;20050;-81
2023/07/21 15:01:42;;;;;;;14.07;11.35;;;16.40;99.90;;;;;;4944944;29;20043;-80
2023/07/21 15:04:10;;;;;;;12.30;11.15;;;16.20;99.90;;;;;;4928556;29;20043;-81
2023/07/21 15:06:39;;;;;;;16.17;12.60;;;16.10;99.90;;;;;;4944298;29;20385;-81
2023/07/21 15:09:08;;;;;;;34.95;15.25;;;16.10;99.90;;;;;;4962531;28;20046;-81
2023/07/21 15:11:35;;;;;;;15.18;13.27;;;16.00;99.90;;;;;;4967172;29;20039;-81
2023/07/21 15:14:01;;;;;;;14.27;12.88;;;15.90;99.90;;;;;;4948559;29;20047;-81
2023/07/21 15:16:27;;;;;;;16.70;14.73;;;15.90;99.90;;;;;;4941683;28;20467;-81
2023/07/21 15:18:53;;;;;;;12.93;11.73;;;15.90;99.90;;;;;;4941271;29;20039;-81
2023/07/21 15:21:19;;;;;;;36.88;18.50;;;15.80;99.90;;;;;;4940878;29;20527;-79
2023/07/21 15:23:45;;;;;;;14.73;12.70;;;15.80;99.90;;;;;;4961554;28;20050;-81
2023/07/21 15:26:11;;;;;;;35.60;13.82;;;15.80;99.90;;;;;;4953542;28;20495;-82
2023/07/21 15:28:37;;;;;;;10.18;9.27;;;15.70;99.90;;;;;;4956653;28;20050;-81
2023/07/21 15:31:04;;;;;;;22.10;14.52;;;15.70;99.90;;;;;;4969478;28;20044;-82
2023/07/21 15:33:32;;;;;;;14.57;12.32;;;15.60;99.90;;;;;;4953681;28;20050;-81
2023/07/21 15:35:58;;;;;;;13.15;11.75;;;15.50;99.90;;;;;;4952459;28;20043;-82
2023/07/21 15:38:24;;;;;;;11.73;10.52;;;15.40;99.90;;;;;;4951130;28;20073;-82
2023/07/21 15:40:49;;;;;;;11.80;10.60;;;15.40;99.90;;;;;;4940368;29;20039;-81
2023/07/21 15:43:15;;;;;;;12.80;11.50;;;15.30;99.90;;;;;;4955209;28;20043;-80
2023/07/21 15:45:41;;;;;;;18.02;14.23;;;15.20;99.90;;;;;;4954463;29;20043;-81
2023/07/21 15:48:08;;;;;;;19.27;14.05;;;15.20;99.90;;;;;;4955937;28;20122;-81
2023/07/21 15:50:35;;;;;;;12.85;11.18;;;15.20;99.90;;;;;;4971732;28;20085;-81
2023/07/21 15:53:01;;;;;;;13.90;11.32;;;15.10;99.90;;;;;;4971011;28;20039;-80
2023/07/21 15:55:27;;;;;;;11.85;10.65;;;15.00;99.90;;;;;;4952727;28;20039;-80
2023/07/21 15:57:52;;;;;;;17.80;13.82;;;14.90;99.90;;;;;;4953825;28;20070;-80
2023/07/21 16:00:19;;;;;;;15.00;13.50;;;14.80;99.90;;;;;;4954446;28;20050;-80
2023/07/21 16:02:51;;;;;;;17.50;14.50;;;14.90;99.90;;;;;;4954289;28;20050;-81
2023/07/21 16:05:22;;;;;;;15.88;13.68;;;14.90;99.90;;;;;;4970948;28;20043;-80
2023/07/21 16:07:48;;;;;;;23.75;18.20;;;15.00;99.90;;;;;;4954116;29;20035;-80
2023/07/21 16:10:14;;;;;;;15.13;13.68;;;15.10;99.90;;;;;;4953354;28;20156;-81